createdAt,value
2023-05-07T00:01:41.155Z,100.00
2023-05-07T00:04:10.328Z,100.00
2023-05-07T00:06:39.699Z,100.00
2023-05-07T00:09:09.274Z,100.00
2023-05-07T00:11:38.596Z,100.00
2023-05-07T00:14:09.304Z,100.00
2023-05-07T00:16:38.434Z,100.00
2023-05-07T00:19:07.579Z,100.00
2023-05-07T00:21:36.702Z,100.00
2023-05-07T00:24:06.198Z,100.00
2023-05-07T00:26:35.234Z,100.00
2023-05-07T00:29:04.414Z,100.00
2023-05-07T00:31:35.112Z,100.00
2023-05-07T00:34:04.299Z,100.00
2023-05-07T00:36:33.493Z,100.00
2023-05-07T00:39:04.882Z,100.00
2023-05-07T00:41:33.934Z,100.00
2023-05-07T00:44:03.731Z,100.00
2023-05-07T00:46:35.377Z,100.00
2023-05-07T00:49:04.992Z,100.00
2023-05-07T00:51:35.781Z,100.00
2023-05-07T00:54:06.159Z,100.00
2023-05-07T00:56:35.269Z,100.00
2023-05-07T00:59:05.089Z,100.00
2023-05-07T01:01:35.747Z,100.00
2023-05-07T01:04:05.162Z,100.00
2023-05-07T01:06:35.897Z,100.00
2023-05-07T01:09:06.239Z,100.00
2023-05-07T01:11:36.070Z,100.00
2023-05-07T01:14:05.674Z,100.00
2023-05-07T01:16:36.977Z,100.00
2023-05-07T01:19:06.601Z,100.00
2023-05-07T01:21:36.582Z,100.00
2023-05-07T01:24:09.122Z,100.00
2023-05-07T01:26:38.262Z,100.00
2023-05-07T01:29:07.363Z,100.00
2023-05-07T01:31:38.788Z,100.00
2023-05-07T01:34:10.994Z,100.00
2023-05-07T01:36:42.572Z,100.00
2023-05-07T01:39:13.653Z,100.00
2023-05-07T01:41:42.813Z,100.00
2023-05-07T01:44:15.111Z,100.00
2023-05-07T01:46:44.402Z,100.00
2023-05-07T01:49:13.728Z,100.00
2023-05-07T01:51:43.119Z,100.00
2023-05-07T01:54:13.901Z,100.00
2023-05-07T01:56:43.474Z,100.00
2023-05-07T01:59:12.690Z,100.00
2023-05-07T02:01:42.136Z,100.00
2023-05-07T02:04:13.305Z,100.00
2023-05-07T02:06:42.724Z,100.00
2023-05-07T02:09:16.498Z,100.00
2023-05-07T02:11:50.185Z,100.00
2023-05-07T02:14:21.874Z,100.00
2023-05-07T02:16:51.360Z,100.00
2023-05-07T02:19:22.408Z,100.00
2023-05-07T02:21:52.225Z,100.00
2023-05-07T02:24:22.779Z,100.00
2023-05-07T02:26:51.980Z,100.00
2023-05-07T02:29:21.269Z,100.00
2023-05-07T02:31:52.043Z,100.00
2023-05-07T02:34:21.665Z,100.00
2023-05-07T02:36:50.730Z,100.00
2023-05-07T02:39:25.152Z,100.00
2023-05-07T02:41:54.374Z,100.00
2023-05-07T02:44:23.576Z,100.00
2023-05-07T02:46:54.250Z,100.00
2023-05-07T02:49:23.559Z,100.00
2023-05-07T02:51:52.762Z,100.00
2023-05-07T02:54:27.552Z,100.00
2023-05-07T02:56:57.562Z,100.00
2023-05-07T02:59:27.515Z,100.00
2023-05-07T03:01:56.910Z,100.00
2023-05-07T03:04:26.040Z,100.00
2023-05-07T03:06:55.164Z,100.00
2023-05-07T03:09:24.261Z,100.00
2023-05-07T03:11:54.994Z,100.00
2023-05-07T03:14:24.324Z,100.00
2023-05-07T03:16:53.599Z,100.00
2023-05-07T03:19:22.730Z,100.00
2023-05-07T03:21:51.914Z,100.00
2023-05-07T03:24:21.115Z,100.00
2023-05-07T03:26:50.548Z,100.00
2023-05-07T03:29:21.282Z,100.00
2023-05-07T03:31:50.646Z,100.00
2023-05-07T03:34:23.304Z,100.00
2023-05-07T03:36:52.777Z,100.00
2023-05-07T03:39:22.432Z,100.00
2023-05-07T03:41:51.689Z,100.00
2023-05-07T03:44:22.980Z,100.00
2023-05-07T03:46:53.904Z,100.00
2023-05-07T03:49:23.069Z,100.00
2023-05-07T03:51:52.178Z,100.00
2023-05-07T03:54:21.497Z,100.00
2023-05-07T03:56:50.566Z,100.00
2023-05-07T03:59:19.719Z,100.00
2023-05-07T04:01:52.249Z,100.00
2023-05-07T04:04:24.688Z,100.00
2023-05-07T04:06:54.331Z,100.00
2023-05-07T04:09:24.822Z,100.00
2023-05-07T04:11:54.027Z,100.00
2023-05-07T04:14:23.150Z,100.00
2023-05-07T04:16:53.709Z,100.00
2023-05-07T04:19:23.104Z,100.00
2023-05-07T04:21:55.422Z,100.00
2023-05-07T04:24:25.237Z,100.00
2023-05-07T04:26:56.376Z,100.00
2023-05-07T04:29:26.146Z,100.00
2023-05-07T04:32:00.065Z,100.00
2023-05-07T04:34:30.451Z,100.00
2023-05-07T04:37:01.796Z,100.00
2023-05-07T04:39:31.134Z,100.00
2023-05-07T04:42:00.397Z,100.00
2023-05-07T04:44:32.267Z,100.00
2023-05-07T04:47:02.752Z,100.00
2023-05-07T04:49:31.986Z,100.00
2023-05-07T04:52:02.273Z,100.00
2023-05-07T04:54:31.425Z,100.00
2023-05-07T04:57:00.488Z,100.00
2023-05-07T04:59:29.733Z,100.00
2023-05-07T05:01:59.060Z,100.00
2023-05-07T05:04:30.151Z,100.00
2023-05-07T05:07:00.347Z,100.00
2023-05-07T05:09:30.601Z,100.00
2023-05-07T05:11:59.810Z,100.00
2023-05-07T05:14:29.573Z,100.00
2023-05-07T05:16:58.847Z,100.00
2023-05-07T05:19:29.958Z,100.00
2023-05-07T05:21:59.260Z,100.00
2023-05-07T05:24:28.393Z,100.00
2023-05-07T05:26:57.636Z,100.00
2023-05-07T05:29:27.512Z,100.00
2023-05-07T05:31:57.055Z,100.00
2023-05-07T05:34:27.844Z,100.00
2023-05-07T05:36:59.078Z,100.00
2023-05-07T05:39:28.713Z,100.00
2023-05-07T05:41:58.117Z,100.00
2023-05-07T05:44:27.914Z,100.00
2023-05-07T05:46:58.938Z,100.00
2023-05-07T05:49:28.664Z,100.00
2023-05-07T05:51:59.440Z,100.00
2023-05-07T05:54:30.603Z,100.00
2023-05-07T05:57:00.032Z,100.00
2023-05-07T05:59:29.259Z,100.00
2023-05-07T06:01:58.484Z,100.00
2023-05-07T06:04:27.883Z,100.00
2023-05-07T06:06:59.331Z,100.00
2023-05-07T06:09:29.017Z,100.00
2023-05-07T06:12:00.475Z,100.00
2023-05-07T06:14:32.347Z,100.00
2023-05-07T06:17:01.766Z,100.00
2023-05-07T06:19:31.000Z,100.00
2023-05-07T06:22:03.838Z,100.00
2023-05-07T06:24:34.719Z,100.00
2023-05-07T06:27:04.236Z,100.00
2023-05-07T06:29:35.113Z,100.00
2023-05-07T06:32:10.393Z,100.00
2023-05-07T06:34:43.652Z,100.00
2023-05-07T06:37:14.573Z,100.00
2023-05-07T06:40:06.717Z,100.00
2023-05-07T06:42:38.776Z,100.00
2023-05-07T06:45:46.474Z,100.00
2023-05-07T06:48:16.340Z,100.00
2023-05-07T06:50:58.974Z,100.00
2023-05-07T06:53:31.892Z,100.00
2023-05-07T06:56:03.112Z,100.00
2023-05-07T06:58:32.944Z,100.00
2023-05-07T07:01:03.487Z,100.00
2023-05-07T07:03:34.232Z,100.00
2023-05-07T07:06:04.480Z,100.00
2023-05-07T07:08:35.781Z,100.00
2023-05-07T07:11:05.218Z,100.00
2023-05-07T07:13:34.781Z,100.00
2023-05-07T07:16:04.229Z,100.00
2023-05-07T07:18:33.468Z,100.00
2023-05-07T07:21:02.725Z,100.00
2023-05-07T07:23:31.824Z,100.00
2023-05-07T07:26:02.732Z,100.00
2023-05-07T07:28:32.206Z,100.00
2023-05-07T07:31:01.524Z,100.00
2023-05-07T07:33:32.634Z,100.00
2023-05-07T07:36:01.730Z,100.00
2023-05-07T07:38:30.911Z,100.00
2023-05-07T07:41:01.831Z,100.00
2023-05-07T07:43:32.505Z,100.00
2023-05-07T07:46:01.821Z,100.00
2023-05-07T07:48:31.433Z,100.00
2023-05-07T07:51:01.826Z,100.00
2023-05-07T07:53:31.717Z,100.00
2023-05-07T07:56:05.621Z,100.00
2023-05-07T07:58:38.618Z,100.00
2023-05-07T08:01:08.415Z,100.00
2023-05-07T08:03:37.957Z,100.00
2023-05-07T08:06:07.487Z,100.00
2023-05-07T08:08:38.358Z,100.00
2023-05-07T08:11:09.237Z,100.00
2023-05-07T08:13:40.544Z,100.00
2023-05-07T08:16:09.918Z,100.00
2023-05-07T08:18:40.007Z,100.00
2023-05-07T08:21:09.329Z,100.00
2023-05-07T08:23:38.520Z,100.00
2023-05-07T08:26:10.435Z,100.00
2023-05-07T08:28:40.803Z,100.00
2023-05-07T08:31:10.962Z,100.00
2023-05-07T08:33:43.246Z,100.00
2023-05-07T08:36:12.488Z,100.00
2023-05-07T08:38:44.118Z,100.00
2023-05-07T08:41:15.046Z,96.76
2023-05-07T08:43:50.692Z,100.00
2023-05-07T08:46:23.314Z,94.61
2023-05-07T08:48:57.237Z,95.54
2023-05-07T08:51:26.958Z,100.00
2023-05-07T08:53:56.818Z,96.77
2023-05-07T08:56:34.168Z,99.99
2023-05-07T08:59:03.582Z,92.83
2023-05-07T09:01:33.144Z,94.55
2023-05-07T09:04:03.385Z,91.09
2023-05-07T09:06:33.146Z,94.32
2023-05-07T09:09:06.489Z,86.55
2023-05-07T09:11:38.010Z,91.79
2023-05-07T09:14:07.593Z,87.70
2023-05-07T09:16:42.566Z,86.34
2023-05-07T09:19:12.153Z,89.10
2023-05-07T09:21:47.290Z,91.19
2023-05-07T09:24:18.762Z,86.51
2023-05-07T09:26:49.594Z,85.13
2023-05-07T09:29:19.919Z,86.62
2023-05-07T09:31:49.203Z,85.22
2023-05-07T09:34:20.977Z,86.62
2023-05-07T09:36:51.475Z,86.67
2023-05-07T09:39:20.909Z,84.68
2023-05-07T09:41:52.553Z,84.90
2023-05-07T09:44:28.076Z,87.61
2023-05-07T09:46:59.149Z,80.85
2023-05-07T09:49:38.475Z,80.01
2023-05-07T09:52:12.741Z,78.52
2023-05-07T09:54:49.593Z,80.54
2023-05-07T09:57:21.852Z,76.79
2023-05-07T09:59:58.334Z,77.37
2023-05-07T10:02:32.986Z,73.96
2023-05-07T10:05:04.870Z,73.77
2023-05-07T10:07:36.903Z,75.00
2023-05-07T10:10:11.180Z,76.01
2023-05-07T10:12:47.612Z,73.98
2023-05-07T10:15:25.980Z,75.95
2023-05-07T10:17:58.839Z,66.98
2023-05-07T10:20:30.604Z,63.72
2023-05-07T10:23:01.035Z,62.76
2023-05-07T10:25:38.362Z,61.33
2023-05-07T10:28:22.111Z,64.23
2023-05-07T10:31:03.891Z,60.53
2023-05-07T10:33:42.130Z,61.23
2023-05-07T10:36:12.512Z,57.54
2023-05-07T10:38:42.593Z,61.48
2023-05-07T10:41:13.700Z,61.96
2023-05-07T10:43:47.066Z,55.94
2023-05-07T10:46:25.419Z,56.79
2023-05-07T10:49:21.006Z,55.67
2023-05-07T10:52:15.767Z,54.66
2023-05-07T10:55:22.765Z,52.53
2023-05-07T11:01:13.911Z,50.22
2023-05-07T11:04:14.029Z,49.62
2023-05-07T11:06:44.965Z,50.38
2023-05-07T11:09:14.162Z,48.45
2023-05-07T11:11:57.156Z,46.34
2023-05-07T11:14:47.435Z,46.24
2023-05-07T11:17:54.205Z,49.05
2023-05-07T11:20:44.693Z,45.88
2023-05-07T11:23:59.228Z,46.60
2023-05-07T11:26:50.209Z,50.36
2023-05-07T11:29:23.151Z,44.47
2023-05-07T11:31:59.042Z,43.84
2023-05-07T11:34:35.254Z,43.66
2023-05-07T11:37:05.673Z,43.72
2023-05-07T11:39:55.615Z,44.27
2023-05-07T11:42:28.532Z,45.41
2023-05-07T11:44:57.386Z,47.85
2023-05-07T11:47:27.790Z,44.99
2023-05-07T11:49:58.912Z,44.97
2023-05-07T11:52:28.110Z,44.57
2023-05-07T11:54:58.846Z,44.78
2023-05-07T11:57:29.392Z,41.25
2023-05-07T11:59:58.882Z,42.12
2023-05-07T12:02:29.510Z,39.67
2023-05-07T12:05:03.838Z,40.39
2023-05-07T12:07:36.560Z,39.05
2023-05-07T12:10:08.203Z,38.80
2023-05-07T12:12:43.329Z,37.61
2023-05-07T12:15:13.151Z,36.79
2023-05-07T12:17:43.538Z,34.54
2023-05-07T12:20:15.846Z,33.57
2023-05-07T12:22:45.852Z,34.28
2023-05-07T12:25:16.393Z,35.10
2023-05-07T12:27:45.795Z,31.54
2023-05-07T12:30:16.063Z,33.58
2023-05-07T12:32:48.224Z,34.22
2023-05-07T12:35:19.114Z,30.60
2023-05-07T12:37:57.658Z,31.88
2023-05-07T12:40:26.854Z,32.06
2023-05-07T12:42:58.544Z,30.95
2023-05-07T12:45:29.692Z,30.08
2023-05-07T12:47:59.341Z,31.64
2023-05-07T12:50:34.563Z,33.51
2023-05-07T12:53:07.399Z,35.65
2023-05-07T12:55:45.131Z,36.15
2023-05-07T12:58:19.193Z,36.46
2023-05-07T13:00:51.016Z,37.05
2023-05-07T13:03:27.621Z,38.11
2023-05-07T13:06:00.208Z,38.35
2023-05-07T13:08:32.604Z,37.95
2023-05-07T13:11:04.934Z,36.55
2023-05-07T13:13:35.482Z,37.63
2023-05-07T13:16:05.624Z,37.19
2023-05-07T13:18:35.920Z,34.37
2023-05-07T13:21:06.945Z,33.64
2023-05-07T13:23:36.756Z,32.69
2023-05-07T13:26:14.561Z,33.72
2023-05-07T13:28:48.260Z,32.10
2023-05-07T13:31:17.467Z,31.75
2023-05-07T13:33:46.673Z,33.20
2023-05-07T13:36:17.616Z,36.05
2023-05-07T13:38:49.677Z,35.06
2023-05-07T13:41:18.857Z,37.95
2023-05-07T13:43:47.999Z,36.47
2023-05-07T13:46:17.673Z,39.44
2023-05-07T13:48:46.853Z,36.97
2023-05-07T13:51:18.285Z,41.62
2023-05-07T13:53:47.524Z,40.39
2023-05-07T13:56:16.993Z,38.83
2023-05-07T13:58:58.837Z,39.90
2023-05-07T14:01:30.379Z,40.25
2023-05-07T14:04:00.848Z,40.18
2023-05-07T14:06:32.540Z,39.90
2023-05-07T14:09:01.894Z,40.69
2023-05-07T14:11:33.296Z,40.91
2023-05-07T14:14:03.128Z,41.05
2023-05-07T14:16:32.346Z,41.88
2023-05-07T14:19:01.687Z,42.06
2023-05-07T14:21:33.189Z,40.48
2023-05-07T14:24:02.548Z,42.41
2023-05-07T14:26:31.972Z,42.81
2023-05-07T14:29:01.160Z,45.20
2023-05-07T14:31:34.344Z,44.47
2023-05-07T14:34:03.729Z,43.96
2023-05-07T14:36:34.462Z,44.28
2023-05-07T14:39:03.776Z,43.28
2023-05-07T14:41:34.368Z,45.00
2023-05-07T14:44:05.287Z,45.79
2023-05-07T14:46:34.468Z,44.86
2023-05-07T14:49:05.101Z,44.95
2023-05-07T14:51:35.773Z,45.31
2023-05-07T14:54:05.382Z,45.19
2023-05-07T14:56:34.571Z,45.64
2023-05-07T14:59:05.028Z,44.15
2023-05-07T15:01:34.785Z,43.96
2023-05-07T15:04:05.460Z,43.42
2023-05-07T15:06:36.290Z,42.42
2023-05-07T15:09:05.721Z,43.14
2023-05-07T15:11:34.956Z,44.26
2023-05-07T15:14:05.506Z,44.87
2023-05-07T15:16:35.410Z,47.24
2023-05-07T15:19:04.702Z,47.13
2023-05-07T15:21:35.907Z,45.49
2023-05-07T15:24:07.058Z,46.18
2023-05-07T15:26:36.664Z,45.80
2023-05-07T15:29:11.454Z,47.91
2023-05-07T15:31:41.269Z,48.45
2023-05-07T15:34:10.488Z,43.05
2023-05-07T15:36:39.675Z,43.31
2023-05-07T15:39:11.206Z,42.94
2023-05-07T15:41:40.356Z,44.85
2023-05-07T15:44:09.597Z,43.39
2023-05-07T15:46:38.930Z,44.41
2023-05-07T15:49:08.612Z,44.06
2023-05-07T15:51:37.992Z,43.57
2023-05-07T15:54:07.433Z,45.12
2023-05-07T15:56:37.785Z,45.39
2023-05-07T15:59:07.962Z,49.87
2023-05-07T16:01:37.270Z,51.43
2023-05-07T16:04:06.830Z,53.40
2023-05-07T16:06:36.282Z,54.27
2023-05-07T16:09:05.669Z,55.19
2023-05-07T16:11:34.823Z,57.01
2023-05-07T16:14:05.858Z,58.91
2023-05-07T16:16:36.851Z,60.58
2023-05-07T16:19:06.341Z,61.31
2023-05-07T16:21:35.777Z,61.03
2023-05-07T16:24:05.413Z,62.69
2023-05-07T16:26:34.655Z,63.13
2023-05-07T16:29:07.152Z,64.52
2023-05-07T16:31:36.954Z,66.33
2023-05-07T16:34:06.419Z,66.10
2023-05-07T16:36:35.932Z,65.29
2023-05-07T16:39:05.837Z,66.62
2023-05-07T16:41:35.289Z,67.34
2023-05-07T16:44:06.123Z,67.38
2023-05-07T16:46:35.670Z,68.46
2023-05-07T16:49:05.042Z,68.27
2023-05-07T16:51:36.320Z,71.17
2023-05-07T16:54:05.704Z,71.21
2023-05-07T16:56:34.954Z,71.37
2023-05-07T16:59:07.569Z,73.67
2023-05-07T17:01:36.969Z,74.67
2023-05-07T17:04:06.389Z,75.44
2023-05-07T17:06:36.809Z,77.17
2023-05-07T17:09:06.177Z,77.67
2023-05-07T17:11:35.464Z,77.13
2023-05-07T17:14:06.600Z,76.68
2023-05-07T17:16:36.065Z,78.98
2023-05-07T17:19:05.267Z,77.95
2023-05-07T17:21:34.554Z,77.65
2023-05-07T17:24:04.331Z,78.15
2023-05-07T17:26:36.601Z,78.58
2023-05-07T17:29:07.433Z,79.57
2023-05-07T17:31:36.966Z,80.23
2023-05-07T17:34:06.563Z,81.87
2023-05-07T17:36:35.939Z,83.02
2023-05-07T17:39:05.810Z,82.73
2023-05-07T17:41:37.608Z,81.93
2023-05-07T17:44:08.479Z,78.72
2023-05-07T17:46:37.809Z,79.07
2023-05-07T17:49:07.017Z,79.91
2023-05-07T17:51:49.892Z,80.29
2023-05-07T17:54:27.173Z,84.15
2023-05-07T17:56:56.615Z,83.13
2023-05-07T17:59:27.385Z,83.35
2023-05-07T18:01:57.127Z,84.33
2023-05-07T18:04:28.473Z,92.32
2023-05-07T18:06:58.506Z,94.83
2023-05-07T18:09:27.867Z,95.84
2023-05-07T18:11:57.276Z,97.99
2023-05-07T18:14:28.333Z,98.52
2023-05-07T18:16:57.815Z,96.86
2023-05-07T18:19:28.362Z,97.78
2023-05-07T18:21:58.829Z,97.41
2023-05-07T18:24:29.837Z,96.89
2023-05-07T18:27:00.330Z,98.78
2023-05-07T18:29:31.602Z,100.00
2023-05-07T18:32:01.754Z,98.99
2023-05-07T18:34:31.718Z,98.04
2023-05-07T18:37:02.077Z,98.46
2023-05-07T18:39:32.814Z,95.35
2023-05-07T18:42:05.690Z,99.42
2023-05-07T18:44:38.907Z,100.00
2023-05-07T18:47:08.768Z,100.00
2023-05-07T18:49:39.225Z,100.00
2023-05-07T18:52:09.317Z,100.00
2023-05-07T18:54:39.492Z,100.00
2023-05-07T18:57:09.647Z,100.00
2023-05-07T18:59:41.576Z,100.00
2023-05-07T19:02:14.404Z,100.00
2023-05-07T19:04:45.310Z,100.00
2023-05-07T19:07:19.591Z,100.00
2023-05-07T19:10:04.866Z,100.00
2023-05-07T19:12:48.251Z,100.00
2023-05-07T19:15:20.096Z,100.00
2023-05-07T19:17:50.394Z,100.00
2023-05-07T19:20:20.593Z,100.00
2023-05-07T19:22:53.472Z,100.00
2023-05-07T19:25:29.025Z,100.00
2023-05-07T19:28:02.289Z,100.00
2023-05-07T19:30:35.112Z,100.00
2023-05-07T19:33:04.933Z,100.00
2023-05-07T19:35:36.683Z,100.00
2023-05-07T19:38:06.777Z,100.00
2023-05-07T19:40:37.291Z,100.00
2023-05-07T19:43:07.538Z,100.00
2023-05-07T19:45:43.196Z,100.00
2023-05-07T19:48:13.802Z,100.00
2023-05-07T19:50:43.686Z,100.00
2023-05-07T19:53:12.980Z,100.00
2023-05-07T19:55:42.459Z,100.00
2023-05-07T19:58:11.655Z,100.00
2023-05-07T20:00:43.350Z,100.00
2023-05-07T20:03:18.632Z,100.00
2023-05-07T20:05:48.693Z,100.00
2023-05-07T20:08:18.388Z,100.00
2023-05-07T20:10:47.565Z,100.00
2023-05-07T20:13:16.928Z,100.00
2023-05-07T20:15:48.092Z,100.00
2023-05-07T20:18:17.364Z,100.00
2023-05-07T20:20:47.100Z,100.00
2023-05-07T20:23:16.422Z,100.00
2023-05-07T20:25:46.516Z,100.00
2023-05-07T20:28:15.757Z,100.00
2023-05-07T20:30:45.152Z,100.00
2023-05-07T20:33:15.877Z,100.00
2023-05-07T20:35:45.464Z,100.00
2023-05-07T20:38:14.704Z,100.00
2023-05-07T20:40:43.834Z,100.00
2023-05-07T20:43:13.124Z,100.00
2023-05-07T20:45:42.599Z,100.00
2023-05-07T20:48:11.745Z,100.00
2023-05-07T20:50:42.424Z,100.00
2023-05-07T20:53:11.902Z,100.00
2023-05-07T20:55:41.138Z,100.00
2023-05-07T20:58:10.332Z,100.00
2023-05-07T21:00:39.974Z,100.00
2023-05-07T21:03:09.626Z,100.00
2023-05-07T21:05:38.841Z,100.00
2023-05-07T21:08:09.456Z,100.00
2023-05-07T21:10:38.773Z,100.00
2023-05-07T21:13:08.002Z,100.00
2023-05-07T21:15:37.180Z,100.00
2023-05-07T21:18:06.567Z,100.00
2023-05-07T21:20:35.853Z,100.00
2023-05-07T21:23:05.590Z,100.00
2023-05-07T21:25:39.321Z,100.00
2023-05-07T21:28:09.454Z,100.00
2023-05-07T21:30:38.815Z,100.00
2023-05-07T21:33:08.835Z,100.00
2023-05-07T21:35:38.069Z,100.00
2023-05-07T21:38:07.321Z,100.00
2023-05-07T21:40:38.498Z,100.00
2023-05-07T21:43:07.752Z,100.00
2023-05-07T21:45:37.065Z,100.00
2023-05-07T21:48:06.764Z,100.00
2023-05-07T21:50:36.215Z,100.00
2023-05-07T21:53:05.339Z,100.00
2023-05-07T21:55:34.395Z,100.00
2023-05-07T21:58:06.258Z,100.00
2023-05-07T22:00:35.614Z,100.00
2023-05-07T22:03:05.137Z,100.00
2023-05-07T22:05:34.403Z,100.00
2023-05-07T22:08:03.544Z,100.00
2023-05-07T22:10:33.032Z,100.00
2023-05-07T22:13:02.444Z,100.00
2023-05-07T22:15:35.442Z,100.00
2023-05-07T22:18:06.670Z,100.00
2023-05-07T22:20:35.925Z,100.00
2023-05-07T22:23:05.368Z,100.00
2023-05-07T22:25:35.851Z,100.00
2023-05-07T22:28:05.373Z,100.00
2023-05-07T22:30:35.877Z,100.00
2023-05-07T22:33:05.276Z,100.00
2023-05-07T22:35:34.396Z,100.00
2023-05-07T22:38:03.639Z,100.00
2023-05-07T22:40:32.835Z,100.00
2023-05-07T22:43:01.877Z,100.00
2023-05-07T22:45:31.185Z,100.00
2023-05-07T22:48:01.744Z,100.00
2023-05-07T22:50:31.095Z,100.00
2023-05-07T22:53:00.069Z,100.00
2023-05-07T22:55:29.457Z,100.00
2023-05-07T22:58:01.687Z,100.00
2023-05-07T23:00:30.947Z,100.00
2023-05-07T23:03:01.601Z,100.00
2023-05-07T23:05:30.768Z,100.00
2023-05-07T23:07:59.955Z,100.00
2023-05-07T23:10:29.068Z,100.00
2023-05-07T23:12:58.232Z,100.00
2023-05-07T23:15:27.611Z,100.00
2023-05-07T23:17:56.957Z,100.00
2023-05-07T23:20:27.565Z,100.00
2023-05-07T23:22:57.135Z,100.00
2023-05-07T23:25:26.559Z,100.00
2023-05-07T23:27:55.680Z,100.00
2023-05-07T23:30:24.914Z,100.00
2023-05-07T23:32:54.285Z,100.00
2023-05-07T23:35:23.800Z,100.00
2023-05-07T23:37:54.501Z,100.00
2023-05-07T23:40:23.792Z,100.00
2023-05-07T23:42:52.811Z,100.00
2023-05-07T23:45:22.077Z,100.00
2023-05-07T23:47:51.642Z,100.00
2023-05-07T23:50:20.936Z,100.00
2023-05-07T23:52:49.994Z,100.00
2023-05-07T23:55:20.503Z,100.00
2023-05-07T23:57:49.991Z,100.00
